DAL9328 KSEA-KBOI
Flight info
| Callsign | DAL9328 |
|---|---|
| Flight time | N/A |
| Altitude | 39000 |
| Route | SUMMA2 SUMMA BOI |
| Aircraft | DAL/M-SDE2E3FGHIRWXY/LB1 |
Departure
| Time | 2026-05-05 04:14 |
|---|---|
| Airport | Seattle–Tacoma International Airport (KSEA) |
Arrival
| Time | N/A |
|---|---|
| Airport | Boise Air Terminal/Gowen Field (KBOI) |
| Time | Latitude | Longitude | Altitude | Speed | Heading |
|---|---|---|---|---|---|
| 2026-05-05 03:33 | 47.44838 | -122.30357 | 410 ft | 0 kts | 40° |
| 2026-05-05 03:51 | 47.44836 | -122.30360 | 412 ft | 2 kts | 40° |
| 2026-05-05 03:51 | 47.44834 | -122.30362 | 412 ft | 0 kts | 40° |
| 2026-05-05 03:51 | 47.44827 | -122.30371 | 412 ft | 2 kts | 40° |
| 2026-05-05 03:51 | 47.44814 | -122.30387 | 405 ft | 2 kts | 40° |
| 2026-05-05 03:52 | 47.44801 | -122.30402 | 411 ft | 2 kts | 5° |
| 2026-05-05 03:52 | 47.44788 | -122.30398 | 407 ft | 0 kts | 314° |
| 2026-05-05 03:52 | 47.44789 | -122.30400 | 410 ft | 0 kts | 314° |
| 2026-05-05 03:52 | 47.44838 | -122.30357 | 410 ft | 8 kts | 40° |
| 2026-05-05 04:00 | 47.44830 | -122.30367 | 412 ft | 2 kts | 40° |
| 2026-05-05 04:00 | 47.44817 | -122.30383 | 412 ft | 2 kts | 40° |
| 2026-05-05 04:00 | 47.44804 | -122.30399 | 412 ft | 2 kts | 22° |
| 2026-05-05 04:01 | 47.44789 | -122.30399 | 411 ft | 2 kts | 314° |
| 2026-05-05 04:01 | 47.44788 | -122.30399 | 411 ft | 0 kts | 314° |
| 2026-05-05 04:01 | 47.44792 | -122.30409 | 411 ft | 3 kts | 300° |
| 2026-05-05 04:01 | 47.44804 | -122.30472 | 411 ft | 8 kts | 274° |
| 2026-05-05 04:02 | 47.44809 | -122.30569 | 413 ft | 10 kts | 278° |
| 2026-05-05 04:02 | 47.44862 | -122.30628 | 410 ft | 9 kts | 355° |
| 2026-05-05 04:02 | 47.44922 | -122.30629 | 412 ft | 8 kts | 360° |
| 2026-05-05 04:02 | 47.44974 | -122.30628 | 414 ft | 8 kts | 0° |
| 2026-05-05 04:03 | 47.45040 | -122.30627 | 412 ft | 12 kts | 0° |
| 2026-05-05 04:03 | 47.45145 | -122.30626 | 414 ft | 18 kts | 0° |
| 2026-05-05 04:03 | 47.45283 | -122.30625 | 419 ft | 21 kts | 360° |
| 2026-05-05 04:03 | 47.45432 | -122.30624 | 426 ft | 22 kts | 0° |
| 2026-05-05 04:04 | 47.45587 | -122.30623 | 429 ft | 23 kts | 0° |
| 2026-05-05 04:04 | 47.45747 | -122.30621 | 431 ft | 23 kts | 0° |
| 2026-05-05 04:04 | 47.45909 | -122.30621 | 431 ft | 23 kts | 1° |
| 2026-05-05 04:04 | 47.46070 | -122.30618 | 435 ft | 23 kts | 1° |
| 2026-05-05 04:05 | 47.46209 | -122.30616 | 441 ft | 11 kts | 0° |
| 2026-05-05 04:05 | 47.46271 | -122.30643 | 438 ft | 9 kts | 321° |
| 2026-05-05 04:05 | 47.46275 | -122.30649 | 439 ft | 0 kts | 316° |
| 2026-05-05 04:12 | 47.46278 | -122.30653 | 428 ft | 2 kts | 315° |
| 2026-05-05 04:12 | 47.46293 | -122.30695 | 430 ft | 8 kts | 291° |
| 2026-05-05 04:13 | 47.46282 | -122.30766 | 431 ft | 7 kts | 213° |
| 2026-05-05 04:13 | 47.46251 | -122.30777 | 436 ft | 2 kts | 179° |
| 2026-05-05 04:13 | 47.46249 | -122.30777 | 436 ft | 0 kts | 179° |
| 2026-05-05 04:13 | 47.46094 | -122.30780 | 433 ft | 68 kts | 181° |
| 2026-05-05 04:14 | 47.45264 | -122.30801 | 423 ft | 167 kts | 182° |
| 2026-05-05 04:14 | 47.44242 | -122.30817 | 878 ft | 181 kts | 182° |
| 2026-05-05 04:14 | 47.42874 | -122.30695 | 1490 ft | 215 kts | 168° |
| 2026-05-05 04:14 | 47.41554 | -122.29566 | 2512 ft | 226 kts | 131° |
| 2026-05-05 04:15 | 47.41020 | -122.27446 | 3896 ft | 220 kts | 97° |
| 2026-05-05 04:15 | 47.40829 | -122.25243 | 5205 ft | 215 kts | 104° |
| 2026-05-05 04:15 | 47.40344 | -122.23195 | 6487 ft | 211 kts | 108° |
| 2026-05-05 04:15 | 47.39778 | -122.21195 | 7573 ft | 210 kts | 109° |
| 2026-05-05 04:16 | 47.39390 | -122.19154 | 8680 ft | 206 kts | 86° |
| 2026-05-05 04:16 | 47.39859 | -122.17164 | 9534 ft | 214 kts | 49° |
| 2026-05-05 04:16 | 47.41130 | -122.16064 | 10371 ft | 224 kts | 11° |
| 2026-05-05 04:16 | 47.42768 | -122.15878 | 10987 ft | 247 kts | 6° |
| 2026-05-05 04:17 | 47.44548 | -122.15300 | 11378 ft | 275 kts | 22° |
| 2026-05-05 04:17 | 47.45979 | -122.13490 | 12468 ft | 274 kts | 57° |
| 2026-05-05 04:17 | 47.46322 | -122.10770 | 13789 ft | 275 kts | 95° |
| 2026-05-05 04:17 | 47.45573 | -122.08185 | 14931 ft | 272 kts | 118° |
| 2026-05-05 04:18 | 47.44357 | -122.06069 | 16007 ft | 269 kts | 134° |
| 2026-05-05 04:18 | 47.42910 | -122.04399 | 16970 ft | 265 kts | 143° |
| 2026-05-05 04:18 | 47.41393 | -122.02925 | 17928 ft | 258 kts | 141° |
| 2026-05-05 04:18 | 47.39901 | -122.01394 | 18529 ft | 266 kts | 141° |
| 2026-05-05 04:19 | 47.38362 | -121.99784 | 18974 ft | 277 kts | 139° |
| 2026-05-05 04:19 | 47.36804 | -121.97986 | 19308 ft | 292 kts | 136° |
| 2026-05-05 04:19 | 47.35245 | -121.95994 | 19652 ft | 293 kts | 133° |
| 2026-05-05 04:19 | 47.33735 | -121.93861 | 19866 ft | 310 kts | 129° |
| 2026-05-05 04:20 | 47.32221 | -121.91470 | 20075 ft | 326 kts | 126° |
| 2026-05-05 04:20 | 47.30735 | -121.88851 | 20322 ft | 340 kts | 123° |
| 2026-05-05 04:20 | 47.29235 | -121.86050 | 20571 ft | 354 kts | 124° |
| 2026-05-05 04:20 | 47.27621 | -121.83290 | 20814 ft | 367 kts | 127° |